Time;durP1;ratioP1;P1;durP2;ratioP2;P2;SDS_P1;SDS_P2;PMS_P1;PMS_P2;Temp;Humidity;BMP_temperature;BMP_pressure;BME280_temperature;BME280_humidity;BME280_pressure;Samples;Min_cycle;Max_cycle;Signal;HPM_P1;HPM_P2
2024/01/19 00:01:41;;;;;;;1.90;1.80;;;-1.90;98.20;;;;;;4958169;28;20489;-73
2024/01/19 00:04:08;;;;;;;1.90;1.80;;;-1.90;98.20;;;;;;4974826;28;20785;-73
2024/01/19 00:06:38;;;;;;;1.90;1.80;;;-1.80;98.20;;;;;;4958023;28;20854;-73
2024/01/19 00:09:05;;;;;;;1.90;1.80;;;-1.80;98.20;;;;;;4975229;28;20485;-73
2024/01/19 00:11:33;;;;;;;1.90;1.70;;;-1.80;98.20;;;;;;4944034;28;20482;-73
2024/01/19 00:14:00;;;;;;;2.00;1.90;;;-1.80;98.20;;;;;;4966606;28;20474;-73
2024/01/19 00:16:27;;;;;;;1.80;1.70;;;-1.80;98.20;;;;;;4949379;28;20566;-74
2024/01/19 00:18:53;;;;;;;1.90;1.80;;;-1.80;98.20;;;;;;4977598;28;20493;-73
2024/01/19 00:21:20;;;;;;;1.97;1.87;;;-1.80;98.20;;;;;;4957335;28;20544;-73
2024/01/19 00:23:47;;;;;;;1.90;1.80;;;-1.90;98.20;;;;;;4966649;28;20989;-73
2024/01/19 00:26:13;;;;;;;1.90;1.80;;;-1.90;98.20;;;;;;4939074;28;20534;-74
2024/01/19 00:28:42;;;;;;;2.10;2.00;;;-1.90;98.20;;;;;;4973621;28;20576;-73
2024/01/19 00:31:08;;;;;;;2.03;1.93;;;-1.90;98.20;;;;;;4947504;28;20481;-73
2024/01/19 00:33:35;;;;;;;1.93;1.83;;;-2.00;98.20;;;;;;4976453;28;20474;-73
2024/01/19 00:36:02;;;;;;;1.90;1.80;;;-2.10;98.20;;;;;;4954673;28;20474;-73
2024/01/19 00:38:29;;;;;;;1.90;1.80;;;-2.10;98.20;;;;;;4953471;28;20496;-74
2024/01/19 00:40:56;;;;;;;1.80;1.70;;;-2.10;98.20;;;;;;4945817;28;20689;-73
2024/01/19 00:43:23;;;;;;;2.00;1.90;;;-2.10;98.20;;;;;;4978092;28;20470;-73
2024/01/19 00:45:51;;;;;;;1.90;1.80;;;-2.00;98.20;;;;;;4957410;28;20472;-73
2024/01/19 00:48:17;;;;;;;1.90;1.80;;;-1.90;98.20;;;;;;4976864;28;20486;-75
2024/01/19 00:50:44;;;;;;;1.80;1.70;;;-1.90;98.20;;;;;;4965538;28;20523;-73
2024/01/19 00:53:11;;;;;;;1.97;1.87;;;-1.90;98.20;;;;;;4967841;28;20492;-73
2024/01/19 00:55:38;;;;;;;1.90;1.80;;;-1.80;98.20;;;;;;4964135;28;20471;-73
2024/01/19 00:58:04;;;;;;;1.90;1.80;;;-1.80;98.20;;;;;;4942388;28;20501;-74
2024/01/19 01:00:31;;;;;;;1.80;1.70;;;-1.80;98.20;;;;;;4955892;28;20469;-73
2024/01/19 01:02:59;;;;;;;2.00;1.90;;;-1.80;98.20;;;;;;4967949;28;20484;-72
2024/01/19 01:05:26;;;;;;;1.80;1.70;;;-1.70;98.20;;;;;;4966219;28;20980;-74
2024/01/19 01:07:53;;;;;;;1.90;1.80;;;-1.70;98.20;;;;;;4963891;28;20489;-73
2024/01/19 01:10:20;;;;;;;1.90;1.80;;;-1.70;98.20;;;;;;4946193;28;20861;-73
2024/01/19 01:12:46;;;;;;;1.90;1.80;;;-1.70;98.20;;;;;;4946310;28;20871;-73
2024/01/19 01:15:13;;;;;;;1.90;1.80;;;-1.70;98.20;;;;;;4961509;28;20847;-73
2024/01/19 01:17:40;;;;;;;1.90;1.80;;;-1.70;98.20;;;;;;4965401;28;20875;-73
2024/01/19 01:20:10;;;;;;;1.80;1.70;;;-1.60;98.20;;;;;;4966370;28;20516;-73
2024/01/19 01:22:37;;;;;;;1.90;1.80;;;-1.60;98.20;;;;;;4962230;28;20897;-73
2024/01/19 01:25:05;;;;;;;1.90;1.80;;;-1.60;98.20;;;;;;4968348;28;20481;-73
2024/01/19 01:27:31;;;;;;;1.80;1.70;;;-1.60;98.20;;;;;;4954985;28;20865;-74
2024/01/19 01:29:58;;;;;;;1.90;1.80;;;-1.60;98.20;;;;;;4940615;28;20462;-73
2024/01/19 01:32:25;;;;;;;1.90;1.80;;;-1.60;98.20;;;;;;4953595;28;21019;-73
2024/01/19 01:34:52;;;;;;;1.80;1.70;;;-1.60;98.20;;;;;;4967082;28;20469;-73
2024/01/19 01:37:20;;;;;;;2.97;2.77;;;-1.60;98.20;;;;;;4964693;28;20491;-73
2024/01/19 01:39:47;;;;;;;1.80;1.70;;;-1.60;98.20;;;;;;4967469;28;20486;-77
2024/01/19 01:42:14;;;;;;;1.70;1.60;;;-1.60;98.20;;;;;;4962870;28;20484;-74
2024/01/19 01:44:41;;;;;;;1.70;1.60;;;-1.60;98.20;;;;;;4967458;28;20529;-77
2024/01/19 01:47:08;;;;;;;1.70;1.60;;;-1.60;98.20;;;;;;4961752;28;20481;-76
2024/01/19 01:49:35;;;;;;;1.70;1.60;;;-1.60;98.20;;;;;;4960611;28;20459;-76
2024/01/19 01:52:01;;;;;;;1.90;1.80;;;-1.60;98.20;;;;;;4955244;28;20882;-76
2024/01/19 01:54:30;;;;;;;1.80;1.70;;;-1.60;98.20;;;;;;4968198;28;20462;-77
2024/01/19 01:56:57;;;;;;;1.80;1.70;;;-1.60;98.20;;;;;;4956189;28;20503;-77
2024/01/19 01:59:24;;;;;;;1.80;1.70;;;-1.60;98.20;;;;;;4962168;28;20492;-76
2024/01/19 02:01:51;;;;;;;1.80;1.70;;;-1.60;98.20;;;;;;4955767;28;20509;-76
2024/01/19 02:04:18;;;;;;;1.80;1.70;;;-1.60;98.20;;;;;;4971367;28;20945;-75
2024/01/19 02:06:45;;;;;;;1.73;1.63;;;-1.60;98.20;;;;;;4957005;28;20827;-77
2024/01/19 02:09:13;;;;;;;2.10;2.00;;;-1.60;98.20;;;;;;4965465;28;20489;-75
2024/01/19 02:11:41;;;;;;;1.90;1.80;;;-1.60;98.20;;;;;;4954393;28;24255;-76
2024/01/19 02:14:10;;;;;;;2.00;1.90;;;-1.60;98.20;;;;;;4951798;28;20481;-76
2024/01/19 02:16:37;;;;;;;1.70;1.60;;;-1.50;98.20;;;;;;4942512;28;20558;-76
2024/01/19 02:19:04;;;;;;;1.80;1.70;;;-1.50;98.20;;;;;;4947753;28;20490;-76
2024/01/19 02:21:31;;;;;;;2.00;1.90;;;-1.50;98.20;;;;;;4941469;28;20572;-77
2024/01/19 02:24:01;;;;;;;1.93;1.83;;;-1.50;98.20;;;;;;4953189;28;20989;-77
2024/01/19 02:26:31;;;;;;;1.90;1.80;;;-1.50;98.20;;;;;;4942899;28;20482;-77
2024/01/19 02:28:58;;;;;;;1.80;1.70;;;-1.50;98.20;;;;;;4956640;28;20585;-76
2024/01/19 02:31:24;;;;;;;1.80;1.70;;;-1.50;98.20;;;;;;4941896;28;20477;-77
2024/01/19 02:33:51;;;;;;;1.93;1.83;;;-1.40;98.20;;;;;;4959508;28;20981;-76
2024/01/19 02:36:18;;;;;;;1.80;1.70;;;-1.40;98.20;;;;;;4943680;28;20477;-77
2024/01/19 02:38:45;;;;;;;1.90;1.80;;;-1.30;98.20;;;;;;4957338;28;20498;-77
2024/01/19 02:41:12;;;;;;;1.80;1.70;;;-1.30;98.20;;;;;;4938637;28;20489;-77
2024/01/19 02:43:40;;;;;;;1.80;1.70;;;-1.30;98.20;;;;;;4960068;28;20471;-76
2024/01/19 02:46:07;;;;;;;2.00;1.90;;;-1.30;98.20;;;;;;4936417;28;20478;-76
2024/01/19 02:48:33;;;;;;;1.80;1.70;;;-1.30;98.20;;;;;;4958164;28;20497;-77
2024/01/19 02:51:00;;;;;;;2.03;1.93;;;-1.20;98.20;;;;;;4940542;28;20463;-76
2024/01/19 02:53:27;;;;;;;1.80;1.70;;;-1.20;98.20;;;;;;4961643;28;20471;-76
2024/01/19 02:55:54;;;;;;;1.80;1.70;;;-1.20;98.20;;;;;;4939718;28;20727;-78
2024/01/19 02:58:20;;;;;;;1.70;1.60;;;-1.20;98.20;;;;;;4960896;28;20493;-79
2024/01/19 03:00:48;;;;;;;1.70;1.60;;;-1.20;98.20;;;;;;4947532;28;20490;-76
2024/01/19 03:03:15;;;;;;;1.83;1.73;;;-1.10;98.20;;;;;;4966243;28;20813;-77
2024/01/19 03:05:42;;;;;;;1.80;1.70;;;-1.10;98.20;;;;;;4951571;29;20520;-78
2024/01/19 03:08:09;;;;;;;1.80;1.70;;;-1.10;98.20;;;;;;4958419;28;20487;-76
2024/01/19 03:10:35;;;;;;;1.80;1.70;;;-1.10;98.20;;;;;;4945998;28;20459;-76
2024/01/19 03:13:02;;;;;;;2.00;1.90;;;-1.10;98.20;;;;;;4956565;28;21004;-76
2024/01/19 03:15:31;;;;;;;1.70;1.60;;;-1.10;98.20;;;;;;4951854;29;20866;-76
2024/01/19 03:17:59;;;;;;;1.80;1.70;;;-1.10;98.20;;;;;;4953907;28;21020;-77
2024/01/19 03:20:25;;;;;;;1.80;1.70;;;-1.10;98.20;;;;;;4945932;28;21059;-77
2024/01/19 03:22:52;;;;;;;1.70;1.60;;;-1.10;98.20;;;;;;4948138;28;20859;-77
2024/01/19 03:25:19;;;;;;;1.70;1.60;;;-1.00;98.20;;;;;;4945365;29;20462;-76
2024/01/19 03:27:46;;;;;;;1.90;1.80;;;-1.10;98.20;;;;;;4948737;28;20481;-77
2024/01/19 03:30:16;;;;;;;1.80;1.70;;;-1.10;98.20;;;;;;4947097;29;20478;-78
2024/01/19 03:32:43;;;;;;;1.80;1.70;;;-1.10;98.20;;;;;;4953828;28;21082;-76
2024/01/19 03:35:11;;;;;;;1.70;1.60;;;-1.00;98.20;;;;;;4947218;28;20486;-77
2024/01/19 03:37:38;;;;;;;2.00;1.90;;;-1.00;98.20;;;;;;4951786;28;20485;-77
2024/01/19 03:40:06;;;;;;;1.80;1.70;;;-0.90;98.20;;;;;;4941280;28;20497;-77
2024/01/19 03:42:33;;;;;;;2.10;2.00;;;-0.90;98.20;;;;;;4934276;28;20562;-77
2024/01/19 03:45:00;;;;;;;1.73;1.63;;;-0.80;98.20;;;;;;4952052;28;20954;-76
2024/01/19 03:47:26;;;;;;;1.80;1.70;;;-0.80;98.20;;;;;;4953251;28;20497;-75
2024/01/19 03:49:53;;;;;;;1.70;1.60;;;-0.80;98.20;;;;;;4951208;28;20459;-76
2024/01/19 03:52:21;;;;;;;1.80;1.70;;;-0.80;98.20;;;;;;4952561;28;20497;-75
2024/01/19 03:54:48;;;;;;;1.77;1.67;;;-0.80;98.20;;;;;;4953200;28;20470;-78
2024/01/19 03:57:15;;;;;;;1.70;1.60;;;-0.80;98.20;;;;;;4951606;28;20482;-76
2024/01/19 03:59:42;;;;;;;1.80;1.70;;;-0.80;98.20;;;;;;4952502;28;20501;-77
2024/01/19 04:02:08;;;;;;;1.80;1.70;;;-0.80;98.20;;;;;;4950855;28;20489;-78
2024/01/19 04:04:35;;;;;;;1.93;1.83;;;-0.80;98.20;;;;;;4955002;28;20478;-78
2024/01/19 04:07:02;;;;;;;1.77;1.67;;;-0.80;98.20;;;;;;4949652;28;20490;-75
2024/01/19 04:09:30;;;;;;;1.80;1.70;;;-0.80;98.20;;;;;;4949773;28;20624;-77
2024/01/19 04:11:57;;;;;;;1.70;1.60;;;-0.80;98.20;;;;;;4948857;28;20862;-77
2024/01/19 04:14:23;;;;;;;1.70;1.60;;;-0.80;98.20;;;;;;4955354;28;20486;-77
2024/01/19 04:16:50;;;;;;;1.90;1.80;;;-0.80;98.20;;;;;;4948162;28;20988;-77
2024/01/19 04:19:17;;;;;;;1.90;1.80;;;-0.80;98.20;;;;;;4957717;28;20491;-79
2024/01/19 04:21:44;;;;;;;1.70;1.60;;;-0.70;98.20;;;;;;4947220;28;20489;-78
2024/01/19 04:24:11;;;;;;;1.80;1.70;;;-0.70;98.20;;;;;;4960377;28;20466;-77
2024/01/19 04:26:39;;;;;;;1.70;1.60;;;-0.70;98.20;;;;;;4959181;28;20478;-76
2024/01/19 04:29:05;;;;;;;1.73;1.63;;;-0.70;98.20;;;;;;4973198;28;20550;-76
2024/01/19 04:31:32;;;;;;;1.80;1.70;;;-0.60;98.20;;;;;;4958885;28;20989;-78
2024/01/19 04:33:59;;;;;;;1.70;1.60;;;-0.60;98.20;;;;;;4974951;28;20843;-77
2024/01/19 04:36:26;;;;;;;1.70;1.60;;;-0.60;98.20;;;;;;4958694;28;20477;-78
2024/01/19 04:38:53;;;;;;;1.87;1.77;;;-0.60;98.20;;;;;;4958962;28;20501;-80
2024/01/19 04:41:19;;;;;;;1.60;1.50;;;-0.60;98.20;;;;;;4935606;28;20502;-77
2024/01/19 04:43:48;;;;;;;1.70;1.60;;;-0.60;98.20;;;;;;4973044;28;20859;-78
2024/01/19 04:46:15;;;;;;;1.80;1.70;;;-0.60;98.20;;;;;;4959745;28;20483;-77
2024/01/19 04:48:41;;;;;;;1.67;1.50;;;-0.60;98.20;;;;;;4972538;28;20997;-77
2024/01/19 04:51:08;;;;;;;1.80;1.70;;;-0.60;98.20;;;;;;4958899;28;20473;-77
2024/01/19 04:53:35;;;;;;;1.63;1.50;;;-0.60;98.20;;;;;;4974486;28;20827;-77
2024/01/19 04:56:06;;;;;;;2.00;1.90;;;-0.70;98.20;;;;;;4956963;28;20466;-77
2024/01/19 04:58:33;;;;;;;1.90;1.80;;;-0.60;98.20;;;;;;4972465;28;20870;-78
2024/01/19 05:01:02;;;;;;;1.70;1.53;;;-0.60;98.20;;;;;;4948490;28;20493;-77
2024/01/19 05:03:29;;;;;;;1.70;1.60;;;-0.70;98.20;;;;;;4969571;28;20472;-77
2024/01/19 05:05:55;;;;;;;1.77;1.67;;;-0.60;98.20;;;;;;4955746;28;20459;-78
2024/01/19 05:08:22;;;;;;;1.70;1.60;;;-0.60;98.20;;;;;;4976496;28;20488;-77
2024/01/19 05:10:49;;;;;;;1.70;1.60;;;-0.60;98.20;;;;;;4944564;28;20530;-78
2024/01/19 05:13:16;;;;;;;1.73;1.63;;;-0.60;98.20;;;;;;4971048;28;20478;-77
2024/01/19 05:15:43;;;;;;;1.77;1.67;;;-0.60;98.20;;;;;;4958936;28;20480;-77
2024/01/19 05:18:11;;;;;;;1.70;1.60;;;-0.60;98.20;;;;;;4963250;28;20486;-78
2024/01/19 05:20:38;;;;;;;1.70;1.60;;;-0.50;98.20;;;;;;4950316;28;20491;-79
2024/01/19 05:23:06;;;;;;;1.60;1.50;;;-0.60;98.20;;;;;;4957520;28;20595;-78
2024/01/19 05:25:33;;;;;;;5.37;5.00;;;-0.60;98.20;;;;;;4961012;28;20462;-78
2024/01/19 05:28:00;;;;;;;1.70;1.60;;;-0.60;98.20;;;;;;4966786;28;20490;-77
2024/01/19 05:30:27;;;;;;;1.70;1.53;;;-0.50;98.20;;;;;;4957562;28;20465;-79
2024/01/19 05:32:54;;;;;;;1.73;1.63;;;-0.50;98.20;;;;;;4963215;28;20492;-77
2024/01/19 05:35:22;;;;;;;1.70;1.60;;;-0.50;98.20;;;;;;4963260;28;20476;-77
2024/01/19 05:37:49;;;;;;;1.73;1.63;;;-0.50;98.20;;;;;;4965912;28;20490;-79
2024/01/19 05:40:16;;;;;;;1.70;1.60;;;-0.50;98.20;;;;;;4964728;28;20486;-78
2024/01/19 05:42:42;;;;;;;1.70;1.60;;;-0.50;98.20;;;;;;4962363;28;20879;-77
2024/01/19 05:45:10;;;;;;;1.90;1.80;;;-0.50;98.20;;;;;;4960470;28;20492;-76
2024/01/19 05:47:37;;;;;;;1.63;1.50;;;-0.40;98.20;;;;;;4960484;28;20506;-77
2024/01/19 05:50:04;;;;;;;1.70;1.60;;;-0.40;98.20;;;;;;4962704;28;20459;-78
2024/01/19 05:52:32;;;;;;;1.70;1.60;;;-0.40;98.20;;;;;;4964891;28;20667;-77
2024/01/19 05:54:59;;;;;;;1.67;1.57;;;-0.40;98.20;;;;;;4959097;28;20463;-77
2024/01/19 05:57:26;;;;;;;1.77;1.67;;;-0.30;98.20;;;;;;4963122;28;20814;-77
2024/01/19 05:59:53;;;;;;;1.80;1.70;;;-0.30;98.20;;;;;;4956278;28;20487;-79
2024/01/19 06:02:21;;;;;;;1.70;1.60;;;-0.30;98.20;;;;;;4958599;28;20481;-77
2024/01/19 06:04:48;;;;;;;1.73;1.63;;;-0.30;98.20;;;;;;4965143;28;20466;-78
2024/01/19 06:07:14;;;;;;;1.60;1.50;;;-0.30;98.20;;;;;;4963529;28;20489;-77
2024/01/19 06:09:43;;;;;;;1.80;1.70;;;-0.30;98.20;;;;;;4964036;28;20561;-78
2024/01/19 06:12:10;;;;;;;2.33;2.13;;;-0.20;98.20;;;;;;4962167;28;20507;-79
2024/01/19 06:14:36;;;;;;;1.70;1.60;;;-0.20;98.20;;;;;;4964856;28;20466;-79
2024/01/19 06:17:03;;;;;;;1.80;1.70;;;-0.20;98.20;;;;;;4955250;28;20583;-78
2024/01/19 06:19:30;;;;;;;1.63;1.50;;;-0.20;98.20;;;;;;4965070;28;20485;-78
2024/01/19 06:21:57;;;;;;;1.70;1.50;;;-0.20;98.20;;;;;;4957492;28;20484;-77
2024/01/19 06:24:24;;;;;;;1.70;1.50;;;-0.10;98.20;;;;;;4971429;28;20486;-77
2024/01/19 06:26:52;;;;;;;1.73;1.63;;;-0.10;98.20;;;;;;4954252;28;20997;-79
2024/01/19 06:29:19;;;;;;;1.70;1.60;;;-0.10;98.20;;;;;;4966178;28;20490;-78
2024/01/19 06:31:46;;;;;;;1.70;1.53;;;0.00;98.20;;;;;;4951441;28;20528;-79
2024/01/19 06:34:14;;;;;;;1.70;1.60;;;0.00;98.20;;;;;;4961180;28;20466;-77
2024/01/19 06:36:43;;;;;;;1.70;1.60;;;0.00;98.20;;;;;;4954394;28;20508;-77
2024/01/19 06:39:11;;;;;;;1.70;1.60;;;0.00;98.20;;;;;;4962229;28;20554;-77
2024/01/19 06:41:41;;;;;;;1.77;1.67;;;0.00;98.20;;;;;;4958297;28;20520;-78
2024/01/19 06:44:10;;;;;;;1.63;1.50;;;0.00;98.20;;;;;;4966584;28;20805;-79
2024/01/19 06:46:37;;;;;;;1.60;1.50;;;0.00;98.20;;;;;;4952394;28;20473;-79
2024/01/19 06:49:03;;;;;;;1.70;1.60;;;0.00;98.20;;;;;;4962835;28;20493;-79
2024/01/19 06:51:32;;;;;;;1.70;1.60;;;0.00;98.20;;;;;;4953889;28;21023;-78
2024/01/19 06:53:59;;;;;;;1.60;1.47;;;0.00;98.20;;;;;;4973923;28;20465;-77
2024/01/19 06:56:25;;;;;;;1.70;1.60;;;0.00;98.20;;;;;;4955039;28;20667;-78
2024/01/19 06:58:52;;;;;;;1.63;1.50;;;0.00;98.20;;;;;;4974073;28;21014;-77
2024/01/19 07:01:20;;;;;;;1.60;1.47;;;0.00;98.20;;;;;;4958168;28;20532;-77
2024/01/19 07:03:47;;;;;;;1.63;1.50;;;0.00;98.20;;;;;;4977287;28;20471;-78
2024/01/19 07:06:14;;;;;;;1.70;1.50;;;0.00;98.20;;;;;;4956200;28;20485;-78
2024/01/19 07:08:41;;;;;;;1.70;1.60;;;0.00;98.20;;;;;;4961624;28;20957;-78
2024/01/19 07:11:07;;;;;;;3.30;2.43;;;0.00;98.20;;;;;;4946790;28;20474;-76
2024/01/19 07:13:34;;;;;;;1.70;1.50;;;0.00;98.20;;;;;;4963739;28;20461;-78
2024/01/19 07:16:01;;;;;;;1.63;1.50;;;0.00;98.20;;;;;;4939066;28;20472;-77
2024/01/19 07:18:30;;;;;;;1.80;1.60;;;0.00;98.20;;;;;;4961635;28;20483;-78
2024/01/19 07:20:56;;;;;;;1.60;1.50;;;0.00;98.20;;;;;;4943890;28;20886;-77
2024/01/19 07:23:23;;;;;;;1.60;1.50;;;0.00;98.20;;;;;;4952249;28;20482;-78
2024/01/19 07:25:50;;;;;;;1.70;1.60;;;0.00;98.20;;;;;;4939885;28;20477;-77
2024/01/19 07:28:17;;;;;;;1.60;1.50;;;-0.10;98.20;;;;;;4958665;28;20494;-76
2024/01/19 07:30:43;;;;;;;1.60;1.40;;;-0.10;98.20;;;;;;4945014;28;20545;-77
2024/01/19 07:33:10;;;;;;;1.70;1.50;;;-0.10;98.20;;;;;;4948111;28;21274;-76
2024/01/19 07:35:39;;;;;;;1.70;1.60;;;-0.10;98.20;;;;;;4937747;28;20823;-77
2024/01/19 07:38:05;;;;;;;1.70;1.60;;;-0.10;98.20;;;;;;4948919;28;21046;-76
2024/01/19 07:40:33;;;;;;;1.70;1.60;;;-0.10;98.20;;;;;;4930640;28;20634;-77
2024/01/19 07:43:00;;;;;;;1.63;1.50;;;-0.10;98.20;;;;;;4953763;28;20849;-78
2024/01/19 07:45:27;;;;;;;1.70;1.60;;;-0.10;98.20;;;;;;4942543;28;20566;-78
2024/01/19 07:47:53;;;;;;;1.63;1.50;;;-0.10;98.20;;;;;;4951353;28;20484;-78
2024/01/19 07:50:20;;;;;;;1.63;1.50;;;-0.20;98.20;;;;;;4944660;28;20464;-76
2024/01/19 07:52:48;;;;;;;1.70;1.60;;;-0.20;98.20;;;;;;4953572;28;20887;-78
2024/01/19 07:55:15;;;;;;;1.80;1.70;;;-0.20;98.20;;;;;;4936865;28;20580;-78
2024/01/19 07:57:42;;;;;;;1.70;1.60;;;-0.20;98.20;;;;;;4950244;28;20725;-77
2024/01/19 08:00:10;;;;;;;1.63;1.50;;;-0.20;98.20;;;;;;4944029;28;20473;-76
2024/01/19 08:02:37;;;;;;;1.70;1.60;;;-0.20;98.20;;;;;;4953703;28;20580;-78
2024/01/19 08:05:04;;;;;;;1.67;1.50;;;-0.20;98.20;;;;;;4947261;28;20476;-78
2024/01/19 08:07:31;;;;;;;1.70;1.60;;;-0.20;98.20;;;;;;4951727;28;20490;-78
2024/01/19 08:09:59;;;;;;;1.70;1.60;;;-0.20;98.20;;;;;;4948406;28;20465;-79
2024/01/19 08:12:26;;;;;;;1.70;1.60;;;-0.20;98.20;;;;;;4949549;28;20573;-76
2024/01/19 08:14:55;;;;;;;1.60;1.50;;;-0.20;98.20;;;;;;4950610;28;20991;-76
2024/01/19 08:17:21;;;;;;;1.60;1.50;;;-0.20;98.20;;;;;;4945685;28;20498;-78
2024/01/19 08:19:49;;;;;;;1.63;1.50;;;-0.20;98.20;;;;;;4948440;28;20473;-77
2024/01/19 08:22:15;;;;;;;1.63;1.50;;;-0.20;98.20;;;;;;4941152;28;20661;-78
2024/01/19 08:24:42;;;;;;;1.70;1.60;;;-0.10;98.20;;;;;;4952583;28;20898;-79
2024/01/19 08:27:10;;;;;;;1.60;1.50;;;-0.10;98.20;;;;;;4944732;28;20510;-79
2024/01/19 08:29:37;;;;;;;1.73;1.63;;;0.00;98.20;;;;;;4955700;28;20512;-77
2024/01/19 08:32:04;;;;;;;1.70;1.50;;;0.00;98.20;;;;;;4945484;28;20629;-77
2024/01/19 08:34:31;;;;;;;1.73;1.63;;;0.00;98.20;;;;;;4948128;28;20488;-78
2024/01/19 08:36:58;;;;;;;1.70;1.60;;;0.00;98.20;;;;;;4948585;28;20884;-78
2024/01/19 08:39:25;;;;;;;1.60;1.50;;;0.00;98.20;;;;;;4946274;28;20590;-78
2024/01/19 08:41:52;;;;;;;1.70;1.60;;;0.00;98.20;;;;;;4945006;28;20497;-77
2024/01/19 08:44:20;;;;;;;1.70;1.60;;;0.00;98.20;;;;;;4947563;28;20467;-78
2024/01/19 08:46:47;;;;;;;1.60;1.50;;;0.00;98.20;;;;;;4946559;28;20521;-77
2024/01/19 08:49:13;;;;;;;1.87;1.77;;;0.00;98.20;;;;;;4949501;28;20585;-77
2024/01/19 08:51:40;;;;;;;1.63;1.50;;;0.00;98.20;;;;;;4939921;28;20513;-77
2024/01/19 08:54:07;;;;;;;1.90;1.80;;;0.00;98.20;;;;;;4952067;28;20219;-78
2024/01/19 08:56:34;;;;;;;3.77;3.47;;;0.00;98.20;;;;;;4936688;28;20492;-78
2024/01/19 08:59:01;;;;;;;1.63;1.50;;;0.00;98.20;;;;;;4946529;28;21763;-79
2024/01/19 09:01:31;;;;;;;1.60;1.50;;;0.00;98.20;;;;;;4939219;28;20542;-78
2024/01/19 09:03:58;;;;;;;1.60;1.50;;;0.00;98.20;;;;;;4951404;28;20465;-78
2024/01/19 09:06:25;;;;;;;1.70;1.60;;;0.00;98.20;;;;;;4936344;28;20492;-79
2024/01/19 09:08:51;;;;;;;1.80;1.70;;;0.00;98.20;;;;;;4950440;28;20498;-78
2024/01/19 09:11:18;;;;;;;1.70;1.57;;;0.00;98.20;;;;;;4934669;28;21001;-78
2024/01/19 09:13:45;;;;;;;1.70;1.50;;;0.00;98.20;;;;;;4952824;28;20556;-79
2024/01/19 09:16:12;;;;;;;1.63;1.50;;;0.10;98.20;;;;;;4934035;28;20486;-79
2024/01/19 09:18:42;;;;;;;1.70;1.60;;;0.10;98.20;;;;;;4955866;28;20635;-76
2024/01/19 09:21:15;;;;;;;1.63;1.50;;;0.10;98.20;;;;;;4934643;28;20474;-77
2024/01/19 09:23:42;;;;;;;1.70;1.60;;;0.10;98.20;;;;;;4945940;28;21337;-77
2024/01/19 09:26:17;;;;;;;1.70;1.60;;;0.10;98.20;;;;;;4934082;28;20593;-77
2024/01/19 09:28:43;;;;;;;1.63;1.50;;;0.10;98.20;;;;;;4952215;28;20572;-78
2024/01/19 09:31:10;;;;;;;1.83;1.73;;;0.10;98.20;;;;;;4936728;28;21083;-78
2024/01/19 09:33:37;;;;;;;1.63;1.50;;;0.10;98.20;;;;;;4951932;28;20487;-77
2024/01/19 09:36:06;;;;;;;1.60;1.50;;;0.20;98.20;;;;;;4934262;28;20471;-77
2024/01/19 09:38:35;;;;;;;1.70;1.60;;;0.20;98.20;;;;;;4955243;28;20495;-77
2024/01/19 09:41:06;;;;;;;1.80;1.70;;;0.20;98.20;;;;;;4939364;28;20490;-78
2024/01/19 09:43:34;;;;;;;1.70;1.60;;;0.20;98.20;;;;;;4948945;28;20472;-78
2024/01/19 09:46:06;;;;;;;1.70;1.57;;;0.20;98.20;;;;;;4934847;28;20472;-77
2024/01/19 09:48:42;;;;;;;1.63;1.50;;;0.20;98.20;;;;;;4949878;28;20483;-78
2024/01/19 09:51:11;;;;;;;1.63;1.40;;;0.20;98.20;;;;;;4938016;28;21017;-77
2024/01/19 09:53:47;;;;;;;1.70;1.60;;;0.20;98.20;;;;;;4949396;28;20474;-77
2024/01/19 09:56:13;;;;;;;1.60;1.47;;;0.20;98.20;;;;;;4936287;28;20481;-77
2024/01/19 09:58:40;;;;;;;1.77;1.67;;;0.20;98.20;;;;;;4956058;28;20488;-78
2024/01/19 10:01:07;;;;;;;1.70;1.60;;;0.20;98.20;;;;;;4932919;28;21019;-78
2024/01/19 10:03:36;;;;;;;1.63;1.50;;;0.20;98.20;;;;;;4951931;28;20903;-78
2024/01/19 10:06:03;;;;;;;1.63;1.50;;;0.30;98.20;;;;;;4932183;28;20526;-78
2024/01/19 10:08:31;;;;;;;1.70;1.53;;;0.20;98.20;;;;;;4953569;28;20737;-77
2024/01/19 10:11:02;;;;;;;1.70;1.50;;;0.30;98.20;;;;;;4934790;28;20469;-77
2024/01/19 10:13:28;;;;;;;1.70;1.60;;;0.30;98.20;;;;;;4956049;28;20955;-78
2024/01/19 10:15:55;;;;;;;1.60;1.50;;;0.30;98.20;;;;;;4936103;28;20476;-77
2024/01/19 10:18:23;;;;;;;1.70;1.60;;;0.30;98.20;;;;;;4948947;28;20498;-79
2024/01/19 10:20:52;;;;;;;1.70;1.60;;;0.30;98.20;;;;;;4928489;28;20515;-77
2024/01/19 10:23:21;;;;;;;1.80;1.70;;;0.40;98.20;;;;;;4964306;28;20498;-79
2024/01/19 10:25:49;;;;;;;1.67;1.53;;;0.40;98.20;;;;;;4946501;28;20546;-79
2024/01/19 10:28:31;;;;;;;1.60;1.40;;;0.40;98.20;;;;;;4967921;28;20492;-78
2024/01/19 10:31:15;;;;;;;1.67;1.50;;;0.40;98.20;;;;;;4946752;28;21082;-79
2024/01/19 10:33:49;;;;;;;1.70;1.50;;;0.40;98.20;;;;;;4955029;28;20526;-78
2024/01/19 10:36:16;;;;;;;1.90;1.77;;;0.40;98.20;;;;;;4944542;28;20552;-79
2024/01/19 10:38:43;;;;;;;1.70;1.50;;;0.50;98.20;;;;;;4960564;28;20494;-76
2024/01/19 10:41:16;;;;;;;1.67;1.50;;;0.50;98.20;;;;;;4949844;28;20616;-79
2024/01/19 10:43:43;;;;;;;1.70;1.57;;;0.50;98.20;;;;;;4960471;28;20475;-78
2024/01/19 10:46:21;;;;;;;1.67;1.50;;;0.50;98.20;;;;;;4944070;28;20489;-78
2024/01/19 10:48:50;;;;;;;1.70;1.60;;;0.50;98.20;;;;;;4962438;28;20490;-77
2024/01/19 10:51:18;;;;;;;1.70;1.60;;;0.50;98.20;;;;;;4939227;28;20469;-78
2024/01/19 10:53:46;;;;;;;1.60;1.50;;;0.60;98.20;;;;;;4957406;28;20467;-78
2024/01/19 10:56:20;;;;;;;1.60;1.50;;;0.60;98.20;;;;;;4938599;28;20901;-77
2024/01/19 10:58:47;;;;;;;1.63;1.50;;;0.60;98.20;;;;;;4961416;28;20910;-78
2024/01/19 11:01:15;;;;;;;1.67;1.50;;;0.60;98.20;;;;;;4933089;28;20486;-78
2024/01/19 11:03:43;;;;;;;1.67;1.57;;;0.60;98.20;;;;;;4957481;28;20555;-79
2024/01/19 11:06:11;;;;;;;1.67;1.50;;;0.70;98.20;;;;;;4940634;28;20490;-79
2024/01/19 11:08:38;;;;;;;1.70;1.53;;;0.70;98.20;;;;;;4953870;28;20527;-79
2024/01/19 11:11:06;;;;;;;1.63;1.50;;;0.70;98.20;;;;;;4930580;28;20502;-78
2024/01/19 11:13:40;;;;;;;1.77;1.67;;;0.70;98.20;;;;;;4953882;28;21033;-79
2024/01/19 11:16:12;;;;;;;1.67;1.50;;;0.70;98.20;;;;;;4937229;28;21057;-77
2024/01/19 11:18:39;;;;;;;1.63;1.50;;;0.70;98.20;;;;;;4947112;28;20514;-77
2024/01/19 11:21:07;;;;;;;1.70;1.60;;;0.70;98.20;;;;;;4933246;28;20853;-78
2024/01/19 11:23:35;;;;;;;1.70;1.50;;;0.80;98.20;;;;;;4955886;28;20480;-77
2024/01/19 11:26:13;;;;;;;1.60;1.50;;;0.70;98.20;;;;;;4938173;28;20481;-77
2024/01/19 11:28:52;;;;;;;1.83;1.73;;;0.80;98.20;;;;;;4951968;28;20498;-79
2024/01/19 11:31:22;;;;;;;1.73;1.63;;;0.80;98.20;;;;;;4938159;28;20920;-78
2024/01/19 11:33:49;;;;;;;1.60;1.40;;;0.80;98.20;;;;;;4956433;28;20506;-78
2024/01/19 11:36:46;;;;;;;3.50;3.30;;;0.80;98.20;;;;;;4940715;28;20489;-77
2024/01/19 11:39:43;;;;;;;1.60;1.50;;;0.90;98.20;;;;;;4949224;28;20612;-78
2024/01/19 11:42:31;;;;;;;1.70;1.60;;;0.90;98.20;;;;;;4942862;28;21065;-78
2024/01/19 11:44:59;;;;;;;1.67;1.47;;;0.90;98.20;;;;;;4947970;28;20492;-78
2024/01/19 11:47:43;;;;;;;1.63;1.50;;;0.90;98.20;;;;;;4946690;28;20781;-78
2024/01/19 11:50:11;;;;;;;1.60;1.50;;;1.00;98.20;;;;;;4942311;28;20484;-78
2024/01/19 11:52:45;;;;;;;1.87;1.77;;;1.00;98.20;;;;;;4947364;28;21034;-78
2024/01/19 11:55:45;;;;;;;1.63;1.50;;;1.10;98.20;;;;;;4946214;28;21266;-78
2024/01/19 11:58:29;;;;;;;1.70;1.53;;;1.10;98.20;;;;;;4927448;28;20474;-78
2024/01/19 12:00:59;;;;;;;1.63;1.40;;;1.20;98.20;;;;;;4932858;28;20478;-79
2024/01/19 12:03:26;;;;;;;1.60;1.50;;;1.20;98.20;;;;;;4946388;28;20487;-78
2024/01/19 12:05:56;;;;;;;1.70;1.50;;;1.30;98.20;;;;;;4928053;28;20581;-77
2024/01/19 12:08:23;;;;;;;1.63;1.40;;;1.40;98.20;;;;;;4951093;28;20490;-77
2024/01/19 12:11:04;;;;;;;1.67;1.53;;;1.40;98.20;;;;;;4931494;28;20966;-78
2024/01/19 12:13:32;;;;;;;1.60;1.47;;;1.50;98.20;;;;;;4952715;28;20842;-77
2024/01/19 12:16:01;;;;;;;1.77;1.67;;;1.50;98.20;;;;;;4933879;28;20556;-80
2024/01/19 12:18:28;;;;;;;1.67;1.50;;;1.50;98.20;;;;;;4949932;28;20754;-79
2024/01/19 12:20:57;;;;;;;1.63;1.40;;;1.60;98.20;;;;;;4934328;28;20550;-79
2024/01/19 12:23:25;;;;;;;1.63;1.50;;;1.60;98.20;;;;;;4939993;28;20494;-79
2024/01/19 12:25:57;;;;;;;1.67;1.40;;;1.60;98.20;;;;;;4938074;28;20471;-80
2024/01/19 12:28:24;;;;;;;1.63;1.40;;;1.60;98.20;;;;;;4961241;28;20496;-79
2024/01/19 12:30:52;;;;;;;1.70;1.60;;;1.60;98.20;;;;;;4932367;28;21044;-80
2024/01/19 12:33:25;;;;;;;1.70;1.50;;;1.60;98.20;;;;;;4956668;28;20474;-81
2024/01/19 12:36:04;;;;;;;1.63;1.50;;;1.60;98.20;;;;;;4937948;28;20471;-81
2024/01/19 12:38:31;;;;;;;1.67;1.47;;;1.50;98.20;;;;;;4952024;28;20503;-81
2024/01/19 12:40:58;;;;;;;1.60;1.40;;;1.50;98.20;;;;;;4936614;28;20470;-81
2024/01/19 12:43:29;;;;;;;1.70;1.50;;;1.50;98.20;;;;;;4953512;28;20530;-81
2024/01/19 12:46:02;;;;;;;1.63;1.40;;;1.60;98.20;;;;;;4935823;28;20468;-80
2024/01/19 12:48:30;;;;;;;1.63;1.40;;;1.60;98.20;;;;;;4951527;28;20615;-80
2024/01/19 12:50:57;;;;;;;1.70;1.50;;;1.60;98.20;;;;;;4931840;28;20467;-80
2024/01/19 12:53:24;;;;;;;1.70;1.40;;;1.60;98.20;;;;;;4960037;28;20502;-79
2024/01/19 12:55:51;;;;;;;1.60;1.40;;;1.70;98.20;;;;;;4933534;28;20563;-79